サル島 の空港の天気 - METARとTAF

アミルカル・カブラル国際空港 ( GVAC / SID ) - カーボベルデ サル島
飛行場実況気象(Metar)
観測時間05/28 22:00 CVT (05/28 23:00 UTC)
風向・風速北東 7m/s
視程10km以上
天気現象
全天の8割程度の雲 雲底高度 430m
気温22℃
湿度83%
気圧1016hPa
METARGVAC 282300Z 05013KT 9999 BKN014 22/19 Q1016 NOSIG
過去の天気等 Google飛行場航空写真 Wunderground天気予報

過去48時間のMETAR

飛行場予報(TAF)
発表時間: 5/28 22:00 CVT (5/28 23:00 UTC)
予報対象時間: 28日23時 CVT ~ 30日5時 CVT
風向・風速北東 7m/s
視程10km以上
全天の8割程度の雲 雲底高度 430m
TAF GVAC 282300Z 2900/3006 05014KT 9999 BKN014